| Date | Time | Temp. (oF) | Dew Point (oF) | Rel. Hum. (%) | Press. (in.) | Wind Dir. | Wind Speed (mph) | Hourly Rainfall (in.) |
|
|---|---|---|---|---|---|---|---|---|---|
| 1 | 01/21 | 00:00 | 26 | 12 | 57 | 30.21 | SSE | 5 | 0.00 |
| 2 | 01/20 | 23:00 | 26 | 12 | 57 | 30.24 | SW | 3 | 0.00 |
| 3 | 01/20 | 22:00 | 25 | 11 | 55 | 30.24 | SE | 2 | 0.00 |
| 4 | 01/20 | 21:00 | 25 | 11 | 56 | 30.27 | ENE | 1 | 0.00 |
| 5 | 01/20 | 20:00 | 25 | 11 | 56 | 30.31 | SSW | 4 | 0.00 |
| 6 | 01/20 | 19:00 | 26 | 10 | 52 | 30.30 | N | 2 | 0.00 |
| 7 | 01/20 | 18:00 | 25 | 8 | 50 | 30.27 | NNE | 1 | 0.00 |
| 8 | 01/20 | 17:00 | 26 | 8 | 48 | 30.23 | NNE | 6 | 0.00 |
| 9 | 01/20 | 16:00 | 26 | 7 | 46 | 30.24 | N | 4 | 0.00 |
| 10 | 01/20 | 15:00 | 27 | 9 | 47 | 30.25 | NNW | 3 | 0.00 |
| 11 | 01/20 | 14:00 | 27 | 11 | 52 | 30.25 | N | 5 | 0.00 |
| 12 | 01/20 | 13:00 | 26 | 7 | 46 | 30.29 | NNE | 7 | 0.00 |
| 13 | 01/20 | 12:00 | 25 | 9 | 52 | 30.31 | SSE | 6 | 0.00 |
| 14 | 01/20 | 11:00 | 24 | 10 | 57 | 30.31 | N | 7 | 0.00 |
| 15 | 01/20 | 10:00 | 22 | 9 | 59 | 30.30 | N | 4 | 0.00 |
| 16 | 01/20 | 09:00 | 22 | 9 | 58 | 30.27 | N | 11 | 0.00 |
| 17 | 01/20 | 08:00 | 20 | 10 | 67 | 30.24 | N | 4 | 0.00 |
| 18 | 01/20 | 07:00 | 21 | 11 | 65 | 30.19 | N | 9 | 0.00 |
| 19 | 01/20 | 06:00 | 24 | 10 | 55 | 30.15 | N | 13 | 0.00 |
| 20 | 01/20 | 05:00 | 29 | 23 | 80 | 30.10 | NNE | 11 | 0.00 |
| 21 | 01/20 | 04:00 | 30 | 24 | 80 | 30.06 | N | 7 | 0.00 |
| 22 | 01/20 | 03:00 | 31 | 27 | 87 | 30.03 | N | 5 | 0.00 |
| 23 | 01/20 | 02:00 | 30 | 26 | 87 | 29.99 | WNW | 2 | 0.00 |
| 24 | 01/20 | 01:00 | 30 | 26 | 86 | 29.98 | W | 2 | 0.00 |